createdAt,value
2022-10-25T00:03:15.696Z,5.78
2022-10-25T00:08:16.639Z,5.40
2022-10-25T00:13:14.935Z,3.97
2022-10-25T00:18:14.056Z,4.30
2022-10-25T00:23:16.104Z,3.97
2022-10-25T00:28:15.005Z,3.55
2022-10-25T00:33:18.284Z,4.13
2022-10-25T00:38:18.737Z,3.90
2022-10-25T00:43:37.050Z,4.05
2022-10-25T00:48:37.087Z,3.75
2022-10-25T00:53:37.541Z,3.80
2022-10-25T00:58:40.407Z,2.80
2022-10-25T01:03:41.988Z,2.95
2022-10-25T01:08:51.181Z,3.20
2022-10-25T01:13:53.979Z,3.15
2022-10-25T01:18:56.847Z,3.65
2022-10-25T01:24:32.770Z,3.33
2022-10-25T01:30:05.891Z,3.08
2022-10-25T01:35:14.482Z,3.45
2022-10-25T01:40:20.853Z,2.97
2022-10-25T01:45:28.565Z,4.40
2022-10-25T01:50:33.778Z,3.55
2022-10-25T01:55:42.973Z,3.50
2022-10-25T02:00:58.887Z,3.70
2022-10-25T02:06:02.842Z,3.55
2022-10-25T02:11:42.772Z,4.20
2022-10-25T02:16:51.827Z,4.18
2022-10-25T02:21:57.852Z,3.58
2022-10-25T02:27:01.152Z,3.30
2022-10-25T02:32:04.165Z,2.80
2022-10-25T02:37:04.956Z,3.87
2022-10-25T02:42:14.728Z,3.22
2022-10-25T02:47:13.461Z,3.35
2022-10-25T02:52:14.939Z,3.53
2022-10-25T02:57:16.832Z,4.57
2022-10-25T03:02:17.427Z,3.15
2022-10-25T03:07:18.708Z,3.28
2022-10-25T03:12:18.931Z,3.63
2022-10-25T03:17:18.308Z,3.47
2022-10-25T03:22:15.806Z,3.83
2022-10-25T03:27:17.940Z,3.20
2022-10-25T03:32:17.093Z,3.30
2022-10-25T03:37:28.020Z,3.75
2022-10-25T03:42:29.060Z,3.60
2022-10-25T03:47:32.540Z,4.40
2022-10-25T03:52:31.378Z,4.47
2022-10-25T03:57:33.695Z,4.82
2022-10-25T04:02:34.774Z,4.18
2022-10-25T04:07:36.462Z,4.63
2022-10-25T04:12:35.155Z,4.45
2022-10-25T04:17:38.620Z,5.00
2022-10-25T04:22:41.036Z,5.78
2022-10-25T04:27:39.520Z,5.53
2022-10-25T04:32:37.543Z,5.60
2022-10-25T04:37:43.002Z,5.88
2022-10-25T04:42:45.323Z,6.88
2022-10-25T04:47:45.544Z,6.63
2022-10-25T04:52:45.248Z,7.35
2022-10-25T04:57:45.528Z,7.75
2022-10-25T05:02:47.603Z,8.48
2022-10-25T05:07:47.578Z,9.57
2022-10-25T05:12:54.962Z,8.60
2022-10-25T05:18:01.139Z,8.48
2022-10-25T05:23:03.003Z,7.97
2022-10-25T05:28:02.439Z,9.98
2022-10-25T05:33:05.084Z,12.88
2022-10-25T05:38:05.102Z,9.32
2022-10-25T05:43:05.679Z,8.65
2022-10-25T05:48:08.165Z,9.05
2022-10-25T05:53:07.393Z,6.57
2022-10-25T05:58:07.313Z,5.90
2022-10-25T06:03:10.817Z,6.60
2022-10-25T06:08:09.783Z,5.90
2022-10-25T06:13:11.912Z,6.28
2022-10-25T06:18:18.176Z,6.53
2022-10-25T06:23:23.544Z,6.30
2022-10-25T06:28:25.942Z,7.30
2022-10-25T06:33:28.263Z,5.65
2022-10-25T06:38:33.818Z,5.82
2022-10-25T06:43:43.425Z,6.88
2022-10-25T06:48:44.199Z,7.40
2022-10-25T06:53:46.512Z,8.00
2022-10-25T06:58:45.123Z,6.68
2022-10-25T07:03:45.555Z,4.95
2022-10-25T07:08:48.218Z,4.95
2022-10-25T07:13:49.165Z,4.60
2022-10-25T07:18:52.210Z,6.30
2022-10-25T07:23:55.087Z,5.38
2022-10-25T07:28:55.733Z,3.78
2022-10-25T07:33:54.800Z,3.65
2022-10-25T07:38:57.177Z,4.00
2022-10-25T07:43:56.107Z,4.10
2022-10-25T07:48:55.993Z,3.97
2022-10-25T07:53:57.853Z,3.53
2022-10-25T07:58:58.503Z,4.38
2022-10-25T08:03:59.815Z,4.95
2022-10-25T08:09:09.632Z,4.53
2022-10-25T08:19:25.806Z,4.25
2022-10-25T08:24:24.464Z,4.10
2022-10-25T08:29:22.253Z,4.70
2022-10-25T08:34:26.583Z,4.18
2022-10-25T08:39:26.575Z,4.05
2022-10-25T08:44:39.536Z,4.78
2022-10-25T08:49:59.492Z,4.43
2022-10-25T08:55:15.746Z,4.55
2022-10-25T09:00:22.154Z,6.47
2022-10-25T09:05:41.745Z,11.85
2022-10-25T09:11:11.211Z,8.32
2022-10-25T09:16:22.762Z,5.50
2022-10-25T09:21:36.360Z,4.43
2022-10-25T09:26:54.761Z,4.13
2022-10-25T09:31:57.277Z,4.30
2022-10-25T09:37:39.949Z,3.72
2022-10-25T09:42:42.045Z,3.58
2022-10-25T09:47:48.151Z,4.35
2022-10-25T09:53:12.364Z,5.22
2022-10-25T09:58:30.646Z,4.22
2022-10-25T10:03:33.173Z,4.07
2022-10-25T10:08:33.459Z,3.85
2022-10-25T10:14:11.347Z,4.88
2022-10-25T10:19:24.388Z,3.97
2022-10-25T10:24:47.178Z,4.10
2022-10-25T10:30:07.945Z,5.13
2022-10-25T10:35:08.530Z,5.40
2022-10-25T10:40:13.335Z,4.50
2022-10-25T10:45:19.389Z,5.22
2022-10-25T10:50:24.260Z,4.13
2022-10-25T10:55:33.552Z,4.18
2022-10-25T11:00:37.879Z,4.30
2022-10-25T11:05:59.076Z,4.65
2022-10-25T11:11:26.803Z,5.43
2022-10-25T11:16:47.755Z,4.60
2022-10-25T11:27:23.267Z,4.15
2022-10-25T11:32:57.039Z,4.30
2022-10-25T11:38:07.892Z,5.75
2022-10-25T11:43:35.154Z,4.50
2022-10-25T11:48:43.152Z,5.68
2022-10-25T11:53:58.966Z,5.47
2022-10-25T11:59:22.380Z,4.45
2022-10-25T12:04:45.021Z,5.35
2022-10-25T12:09:53.511Z,5.07
2022-10-25T12:14:56.630Z,5.80
2022-10-25T12:19:58.343Z,5.45
2022-10-25T12:25:04.106Z,6.28
2022-10-25T12:30:21.687Z,5.85
2022-10-25T12:35:56.593Z,5.95
2022-10-25T12:41:02.339Z,5.38
2022-10-25T12:46:06.509Z,6.43
2022-10-25T12:51:38.206Z,6.35
2022-10-25T12:57:01.066Z,6.60
2022-10-25T13:02:36.853Z,5.57
2022-10-25T13:07:49.887Z,7.57
2022-10-25T13:13:09.067Z,6.05
2022-10-25T13:18:41.949Z,5.65
2022-10-25T13:23:43.053Z,4.93
2022-10-25T13:28:52.857Z,4.85
2022-10-25T13:34:14.914Z,5.63
2022-10-25T13:39:41.872Z,5.20
2022-10-25T13:45:07.712Z,5.68
2022-10-25T13:50:29.490Z,6.63
2022-10-25T13:55:36.675Z,5.75
2022-10-25T14:00:41.599Z,6.85
2022-10-25T14:05:58.327Z,6.20
2022-10-25T14:11:03.908Z,5.53
2022-10-25T14:16:04.780Z,6.40
2022-10-25T14:21:05.729Z,6.57
2022-10-25T14:26:06.324Z,7.80
2022-10-25T14:31:06.762Z,8.60
2022-10-25T14:36:11.950Z,8.07
2022-10-25T14:41:13.045Z,6.72
2022-10-25T14:52:05.920Z,5.80
2022-10-25T14:57:11.767Z,7.13
2022-10-25T15:02:17.738Z,5.70
2022-10-25T15:07:25.652Z,5.85
2022-10-25T15:12:35.073Z,9.77
2022-10-25T15:17:39.246Z,5.93
2022-10-25T15:28:52.071Z,12.85
2022-10-25T15:34:02.415Z,14.10
2022-10-25T15:39:23.249Z,5.72
2022-10-25T15:50:58.973Z,5.72
2022-10-25T15:55:58.738Z,5.70
2022-10-25T16:00:57.386Z,6.20
2022-10-25T16:05:57.566Z,6.85
2022-10-25T16:10:58.105Z,7.70
2022-10-25T16:21:14.480Z,6.30
2022-10-25T16:26:36.488Z,6.80
2022-10-25T16:43:53.616Z,6.07
2022-10-25T16:49:09.899Z,6.35
2022-10-25T16:54:40.705Z,6.72
2022-10-25T17:00:13.797Z,7.97
2022-10-25T17:05:28.334Z,6.50
2022-10-25T17:10:31.556Z,6.22
2022-10-25T17:15:32.184Z,4.88
2022-10-25T17:20:32.893Z,6.25
2022-10-25T17:25:35.269Z,5.45
2022-10-25T17:30:34.335Z,5.97
2022-10-25T17:35:32.825Z,5.97
2022-10-25T17:40:33.941Z,4.47
2022-10-25T17:45:33.355Z,7.13
2022-10-25T17:50:49.089Z,6.00
2022-10-25T17:55:48.440Z,5.93
2022-10-25T18:00:49.716Z,6.57
2022-10-25T18:05:55.695Z,5.55
2022-10-25T18:11:09.855Z,6.53
2022-10-25T18:16:27.059Z,5.82
2022-10-25T18:21:26.416Z,6.57
2022-10-25T18:26:25.826Z,4.75
2022-10-25T18:31:34.924Z,5.00
2022-10-25T18:36:37.736Z,4.00
2022-10-25T18:47:19.802Z,4.72
2022-10-25T18:52:30.993Z,5.35
2022-10-25T18:57:41.163Z,6.00
2022-10-25T19:02:53.928Z,4.72
2022-10-25T19:08:12.041Z,4.55
2022-10-25T19:13:23.468Z,3.75
2022-10-25T19:18:24.814Z,4.00
2022-10-25T19:23:24.061Z,4.43
2022-10-25T19:28:26.721Z,4.25
2022-10-25T19:33:25.741Z,4.75
2022-10-25T19:38:40.079Z,5.38
2022-10-25T19:43:47.416Z,9.55
2022-10-25T19:48:47.802Z,4.35
2022-10-25T19:53:47.919Z,5.20
2022-10-25T19:58:47.411Z,4.13
2022-10-25T20:03:50.400Z,4.85
2022-10-25T20:09:53.142Z,6.55
2022-10-25T20:14:59.527Z,4.32
2022-10-25T20:19:59.492Z,4.07
2022-10-25T20:25:02.490Z,4.05
2022-10-25T20:35:31.420Z,9.30
2022-10-25T20:45:51.303Z,4.00
2022-10-25T20:51:33.464Z,4.47
2022-10-25T20:57:09.896Z,4.23
2022-10-25T21:02:13.841Z,3.65
2022-10-25T21:07:16.370Z,4.70
2022-10-25T21:12:13.956Z,4.00
2022-10-25T21:17:11.627Z,3.40
2022-10-25T21:22:14.104Z,3.80
2022-10-25T21:27:21.568Z,4.80
2022-10-25T21:32:23.719Z,4.00
2022-10-25T21:37:24.585Z,3.45
2022-10-25T21:42:56.748Z,3.90
2022-10-25T21:47:56.479Z,3.92
2022-10-25T21:53:04.856Z,3.65
2022-10-25T21:58:11.901Z,4.95
2022-10-25T22:03:10.599Z,3.50
2022-10-25T22:08:30.313Z,3.28
2022-10-25T22:13:34.502Z,3.65
2022-10-25T22:23:40.621Z,3.28
2022-10-25T22:28:41.966Z,3.83
2022-10-25T22:33:52.675Z,4.20
2022-10-25T22:38:55.776Z,4.13
2022-10-25T22:43:55.861Z,3.83
2022-10-25T22:54:29.418Z,4.65
2022-10-25T23:00:15.421Z,4.05
2022-10-25T23:05:15.845Z,4.07
2022-10-25T23:10:19.801Z,4.10
2022-10-25T23:15:21.357Z,4.90
2022-10-25T23:20:21.315Z,4.60
2022-10-25T23:25:24.864Z,4.07
2022-10-25T23:30:34.671Z,4.03
2022-10-25T23:35:38.109Z,4.15
2022-10-25T23:40:44.025Z,4.20
2022-10-25T23:45:48.400Z,4.78
2022-10-25T23:55:59.233Z,5.00
